Time;durP1;ratioP1;P1;durP2;ratioP2;P2;SDS_P1;SDS_P2;PMS_P1;PMS_P2;Temp;Humidity;BMP_temperature;BMP_pressure;BME280_temperature;BME280_humidity;BME280_pressure;Samples;Min_cycle;Max_cycle;Signal;HPM_P1;HPM_P2
2023/03/16 00:04:07;;;;;;;;;;;;;;;0.85;100.00;96052.69;10406046;28;3062;-66
2023/03/16 00:09:10;;;;;;;;;;;;;;;0.70;100.00;96041.50;10403848;28;2721;-66
2023/03/16 00:14:13;;;;;;;;;;;;;;;0.64;100.00;96037.88;10401119;28;2347;-66
2023/03/16 00:19:15;;;;;;;;;;;;;;;0.44;100.00;96032.56;10439097;28;2698;-69
2023/03/16 00:24:18;;;;;;;;;;;;;;;0.28;100.00;96027.69;10397831;28;2742;-68
2023/03/16 00:29:21;;;;;;;;;;;;;;;0.17;100.00;96034.41;10404670;28;2001;-65
2023/03/16 00:34:24;;;;;;;;;;;;;;;0.13;100.00;96035.03;10394515;28;2063;-68
2023/03/16 00:39:26;;;;;;;;;;;;;;;0.04;100.00;96036.22;10401559;28;2756;-70
2023/03/16 00:44:30;;;;;;;;;;;;;;;0.07;100.00;96031.34;10403863;28;2061;-77
2023/03/16 00:49:33;;;;;;;;;;;;;;;0.17;100.00;96036.22;10400170;28;2713;-67
2023/03/16 00:54:36;;;;;;;;;;;;;;;0.17;100.00;96041.50;10400693;28;2637;-65
2023/03/16 00:59:38;;;;;;;;;;;;;;;0.20;100.00;96049.88;10399270;28;2825;-65
2023/03/16 01:04:41;;;;;;;;;;;;;;;0.38;100.00;96033.41;10400319;28;2702;-66
2023/03/16 01:09:43;;;;;;;;;;;;;;;0.42;100.00;96034.59;10420208;28;2840;-65
2023/03/16 01:14:47;;;;;;;;;;;;;;;0.53;100.00;96036.66;10396329;28;2762;-65
2023/03/16 01:19:50;;;;;;;;;;;;;;;0.61;100.00;96043.56;10399439;28;2861;-64
2023/03/16 01:24:52;;;;;;;;;;;;;;;0.54;100.00;96026.88;10400416;28;3144;-69
2023/03/16 01:29:55;;;;;;;;;;;;;;;0.52;100.00;96035.03;10398663;28;1971;-66
2023/03/16 01:34:57;;;;;;;;;;;;;;;0.58;100.00;96029.94;10412196;28;3053;-66
2023/03/16 01:40:01;;;;;;;;;;;;;;;0.52;100.00;96034.22;10363284;28;1102025;-66
2023/03/16 01:45:05;;;;;;;;;;;;;;;0.51;100.00;96022.81;10403245;28;2717;-67
2023/03/16 01:50:07;;;;;;;;;;;;;;;0.49;100.00;96019.53;10400116;28;2032;-65
2023/03/16 01:55:12;;;;;;;;;;;;;;;0.34;100.00;96011.03;10402344;28;2768;-67
2023/03/16 02:00:18;;;;;;;;;;;;;;;0.33;100.00;96009.41;10393998;28;2839;-65
2023/03/16 02:05:21;;;;;;;;;;;;;;;0.35;100.00;96015.28;10400813;28;2714;-65
2023/03/16 02:10:29;;;;;;;;;;;;;;;0.38;100.00;96011.41;10401418;28;2741;-67
2023/03/16 02:15:34;;;;;;;;;;;;;;;0.39;100.00;96013.06;10399388;28;1999;-66
2023/03/16 02:20:39;;;;;;;;;;;;;;;0.49;100.00;96014.25;10401379;28;2661;-68
2023/03/16 02:25:43;;;;;;;;;;;;;;;0.39;100.00;96013.88;10396741;28;3152;-72
2023/03/16 02:30:46;;;;;;;;;;;;;;;0.37;100.00;96012.44;10425955;28;2653;-66
2023/03/16 02:35:49;;;;;;;;;;;;;;;0.19;100.00;96013.88;10394734;28;2856;-66
2023/03/16 02:40:52;;;;;;;;;;;;;;;0.14;100.00;96015.50;10405495;28;2840;-66
2023/03/16 02:45:55;;;;;;;;;;;;;;;0.00;100.00;96017.31;10406495;28;2856;-67
2023/03/16 02:50:57;;;;;;;;;;;;;;;0.13;100.00;96017.31;10401404;28;2705;-65
2023/03/16 02:56:01;;;;;;;;;;;;;;;0.18;100.00;96017.50;10404661;28;2768;-67
2023/03/16 03:01:05;;;;;;;;;;;;;;;0.18;100.00;96006.94;10408596;28;2836;-71
2023/03/16 03:06:07;;;;;;;;;;;;;;;0.04;100.00;96012.41;10405205;28;2748;-65
2023/03/16 03:11:10;;;;;;;;;;;;;;;-0.10;100.00;96014.25;10407248;28;2853;-65
2023/03/16 03:16:13;;;;;;;;;;;;;;;-0.29;100.00;96006.06;10403188;28;2787;-66
2023/03/16 03:21:17;;;;;;;;;;;;;;;-0.49;100.00;96018.41;10407031;28;2878;-65
2023/03/16 03:26:20;;;;;;;;;;;;;;;-0.41;100.00;96017.41;10396061;28;2789;-67
2023/03/16 03:31:22;;;;;;;;;;;;;;;-0.53;100.00;96014.53;10407973;28;2697;-66
2023/03/16 03:36:25;;;;;;;;;;;;;;;-0.58;100.00;96016.94;10402950;28;2739;-66
2023/03/16 03:41:27;;;;;;;;;;;;;;;-0.67;100.00;96011.03;10403859;28;2855;-69
2023/03/16 03:46:30;;;;;;;;;;;;;;;-0.69;100.00;96010.44;10397170;28;2853;-73
2023/03/16 03:51:33;;;;;;;;;;;;;;;-0.76;100.00;96000.81;10404374;28;2729;-65
2023/03/16 03:56:35;;;;;;;;;;;;;;;-0.84;100.00;96004.44;10406145;28;2072;-68
2023/03/16 04:01:37;;;;;;;;;;;;;;;-0.90;100.00;95997.31;10406820;28;2829;-65
2023/03/16 04:06:41;;;;;;;;;;;;;;;-0.94;100.00;96001.38;10411063;28;2732;-67
2023/03/16 04:11:43;;;;;;;;;;;;;;;-0.94;100.00;95996.09;10412603;28;2095;-68
2023/03/16 04:16:46;;;;;;;;;;;;;;;-0.99;100.00;96003.78;10407533;28;2769;-75
2023/03/16 04:21:49;;;;;;;;;;;;;;;-0.98;100.00;96003.59;10406456;28;2787;-67
2023/03/16 04:26:53;;;;;;;;;;;;;;;-1.03;100.00;96003.34;10437786;28;2784;-67
2023/03/16 04:31:55;;;;;;;;;;;;;;;-1.01;100.00;96008.47;10411461;28;2866;-66
2023/03/16 04:36:57;;;;;;;;;;;;;;;-1.02;100.00;96012.06;10411074;28;2804;-70
2023/03/16 04:42:00;;;;;;;;;;;;;;;-1.10;100.00;96008.59;10402747;28;2951;-66
2023/03/16 04:47:02;;;;;;;;;;;;;;;-1.04;100.00;96001.72;10406128;28;2714;-66
2023/03/16 04:52:06;;;;;;;;;;;;;;;-1.06;100.00;96000.31;10397104;28;2778;-67
2023/03/16 04:57:08;;;;;;;;;;;;;;;-1.09;100.00;95993.56;10403220;28;2713;-66
2023/03/16 05:02:10;;;;;;;;;;;;;;;-1.13;100.00;95998.44;10398372;28;2846;-64
2023/03/16 05:07:13;;;;;;;;;;;;;;;-1.16;100.00;95985.63;10403054;28;1977;-68
2023/03/16 05:12:16;;;;;;;;;;;;;;;-1.10;100.00;95979.56;10402456;28;1965;-66
2023/03/16 05:17:28;;;;;;;;;;;;;;;-1.10;100.00;95976.94;10399279;28;2715;-67
2023/03/16 05:22:30;;;;;;;;;;;;;;;-1.02;100.00;95975.13;10398365;28;2709;-66
2023/03/16 05:27:34;;;;;;;;;;;;;;;-1.10;100.00;95971.66;10397481;28;2747;-66
2023/03/16 05:32:36;;;;;;;;;;;;;;;-1.03;100.00;95976.16;10403743;28;2830;-67
2023/03/16 05:37:39;;;;;;;;;;;;;;;-0.93;100.00;95973.97;10400746;28;2690;-66
2023/03/16 05:42:42;;;;;;;;;;;;;;;-0.85;100.00;95984.34;10397181;28;3058;-64
2023/03/16 05:47:44;;;;;;;;;;;;;;;-0.75;100.00;95978.72;10398747;28;2763;-66
2023/03/16 05:52:47;;;;;;;;;;;;;;;-0.67;100.00;95971.44;10403513;28;1973;-67
2023/03/16 05:57:49;;;;;;;;;;;;;;;-0.53;100.00;95961.72;10397531;28;2799;-66
2023/03/16 06:02:52;;;;;;;;;;;;;;;-0.41;100.00;95969.88;10399698;28;2854;-68
2023/03/16 06:07:56;;;;;;;;;;;;;;;-0.21;100.00;95973.34;10403141;28;1994;-65
2023/03/16 06:12:58;;;;;;;;;;;;;;;-0.10;100.00;95962.19;10404779;28;2760;-66
2023/03/16 06:18:01;;;;;;;;;;;;;;;0.04;100.00;95968.31;10406923;28;2820;-66
2023/03/16 06:23:04;;;;;;;;;;;;;;;0.24;100.00;95968.28;10405936;28;2366;-70
2023/03/16 06:28:07;;;;;;;;;;;;;;;0.41;100.00;95972.16;10403897;28;2665;-65
2023/03/16 06:33:20;;;;;;;;;;;;;;;0.56;100.00;95976.41;10406805;28;3153;-66
2023/03/16 06:38:23;;;;;;;;;;;;;;;0.58;100.00;95969.91;10406852;28;2799;-65
2023/03/16 06:43:26;;;;;;;;;;;;;;;0.75;100.00;95964.97;10404055;28;2796;-66
2023/03/16 06:48:29;;;;;;;;;;;;;;;0.89;100.00;95973.69;10406183;28;1957;-68
2023/03/16 06:53:31;;;;;;;;;;;;;;;0.98;100.00;95965.31;10398300;28;3141;-65
2023/03/16 06:58:33;;;;;;;;;;;;;;;0.78;100.00;95965.38;10409284;28;2760;-68
2023/03/16 07:03:36;;;;;;;;;;;;;;;0.80;100.00;95958.03;10400106;28;2864;-64
2023/03/16 07:08:38;;;;;;;;;;;;;;;0.70;100.00;95962.13;10402303;28;2824;-75
2023/03/16 07:13:40;;;;;;;;;;;;;;;0.80;100.00;95957.22;10405138;28;2790;-67
2023/03/16 07:18:43;;;;;;;;;;;;;;;0.88;100.00;95958.84;10408283;28;1957;-66
2023/03/16 07:23:46;;;;;;;;;;;;;;;0.51;100.00;95964.63;10400100;28;2692;-65
2023/03/16 07:28:49;;;;;;;;;;;;;;;0.47;100.00;95976.63;10398460;28;1948;-66
2023/03/16 07:33:52;;;;;;;;;;;;;;;0.80;100.00;95978.41;10433929;28;2722;-69
2023/03/16 07:38:54;;;;;;;;;;;;;;;0.85;100.00;95970.66;10399301;28;2742;-67
2023/03/16 07:43:58;;;;;;;;;;;;;;;1.27;100.00;95968.47;10403567;28;2769;-66
2023/03/16 07:49:01;;;;;;;;;;;;;;;1.47;100.00;95971.03;10435128;28;2757;-67
2023/03/16 07:54:04;;;;;;;;;;;;;;;0.86;100.00;95987.34;10401949;28;2820;-67
2023/03/16 07:59:07;;;;;;;;;;;;;;;0.91;100.00;95983.06;10400109;28;2022;-69
2023/03/16 08:04:11;;;;;;;;;;;;;;;0.73;100.00;95993.47;10403142;28;2854;-73
2023/03/16 08:09:14;;;;;;;;;;;;;;;0.89;100.00;95997.50;10404154;28;3256;-71
2023/03/16 08:14:16;;;;;;;;;;;;;;;0.72;100.00;96007.75;10402308;28;1989;-66
2023/03/16 08:19:19;;;;;;;;;;;;;;;1.28;100.00;96015.13;10406926;28;2115;-66
2023/03/16 08:24:21;;;;;;;;;;;;;;;1.13;100.00;96010.06;10400840;28;2732;-67
2023/03/16 08:29:24;;;;;;;;;;;;;;;1.59;100.00;96015.22;10419076;28;2475;-67
2023/03/16 08:34:27;;;;;;;;;;;;;;;1.82;100.00;96008.56;10400106;28;2134;-68
2023/03/16 08:39:31;;;;;;;;;;;;;;;2.08;100.00;96003.06;10400511;28;2527;-66
2023/03/16 08:44:40;;;;;;;;;;;;;;;2.29;100.00;95999.28;10403868;28;2421;-70
2023/03/16 08:49:43;;;;;;;;;;;;;;;2.33;100.00;95989.84;10405253;28;1981;-66
2023/03/16 08:54:46;;;;;;;;;;;;;;;2.26;100.00;95993.59;10401833;28;1918;-67
2023/03/16 09:00:11;;;;;;;;;;;;;;;2.20;100.00;95994.44;10407913;28;2516;-66
2023/03/16 09:05:24;;;;;;;;;;;;;;;2.47;100.00;95979.13;10402099;28;2586;-66
2023/03/16 09:10:35;;;;;;;;;;;;;;;2.47;100.00;95979.94;10405720;28;2430;-68
2023/03/16 09:15:41;;;;;;;;;;;;;;;2.42;100.00;95977.13;10400476;28;1974;-67
2023/03/16 09:20:46;;;;;;;;;;;;;;;2.70;100.00;95985.44;10406002;28;2014;-66
2023/03/16 09:25:49;;;;;;;;;;;;;;;2.65;100.00;95982.63;10400988;28;2377;-71
2023/03/16 09:30:52;;;;;;;;;;;;;;;2.35;100.00;95993.09;10397442;28;2560;-67
2023/03/16 09:35:57;;;;;;;;;;;;;;;2.72;100.00;95993.19;10398172;28;2503;-66
2023/03/16 09:41:00;;;;;;;;;;;;;;;3.10;100.00;95987.69;10400175;28;2594;-66
2023/03/16 09:46:02;;;;;;;;;;;;;;;3.07;100.00;95982.81;10400683;28;2615;-66
2023/03/16 09:51:06;;;;;;;;;;;;;;;3.00;100.00;95981.28;10409228;28;2534;-66
2023/03/16 09:56:09;;;;;;;;;;;;;;;3.13;100.00;95979.28;10402842;28;2508;-67
2023/03/16 10:01:14;;;;;;;;;;;;;;;3.67;100.00;95972.28;10401447;28;2555;-66
2023/03/16 10:06:18;;;;;;;;;;;;;;;3.94;100.00;95963.91;10404839;28;2456;-67
2023/03/16 10:11:30;;;;;;;;;;;;;;;3.97;100.00;95969.59;10408153;28;2860;-69
2023/03/16 10:16:33;;;;;;;;;;;;;;;3.89;100.00;95967.28;10405146;28;2463;-67
2023/03/16 10:21:36;;;;;;;;;;;;;;;4.02;100.00;95960.97;10407212;28;2474;-69
2023/03/16 10:26:38;;;;;;;;;;;;;;;4.07;100.00;95958.41;10401080;28;2543;-67
2023/03/16 10:31:41;;;;;;;;;;;;;;;3.56;100.00;95950.94;10402291;28;2768;-70
2023/03/16 10:36:44;;;;;;;;;;;;;;;3.70;100.00;95945.25;10403090;28;1974;-71
2023/03/16 10:41:49;;;;;;;;;;;;;;;4.07;100.00;95942.44;10401755;28;2376;-67
2023/03/16 10:46:52;;;;;;;;;;;;;;;3.90;100.00;95944.16;10406223;28;1939;-66
2023/03/16 10:51:56;;;;;;;;;;;;;;;4.42;100.00;95933.72;10406883;28;2569;-66
2023/03/16 10:56:59;;;;;;;;;;;;;;;4.84;100.00;95932.53;10407244;28;1980;-66
2023/03/16 11:02:02;;;;;;;;;;;;;;;4.39;100.00;95921.69;10401374;28;2556;-66
2023/03/16 11:07:08;;;;;;;;;;;;;;;4.16;100.00;95922.47;10408373;28;2421;-67
2023/03/16 11:12:10;;;;;;;;;;;;;;;4.34;100.00;95917.03;10406301;28;1978;-68
2023/03/16 11:17:13;;;;;;;;;;;;;;;4.31;100.00;95917.47;10400268;28;2354;-67
2023/03/16 11:22:16;;;;;;;;;;;;;;;4.28;100.00;95907.31;10405905;28;1954;-66
2023/03/16 11:27:18;;;;;;;;;;;;;;;4.46;100.00;95893.09;10398480;28;2441;-67
2023/03/16 11:32:21;;;;;;;;;;;;;;;4.55;100.00;95901.53;10406309;28;2405;-66
2023/03/16 11:37:24;;;;;;;;;;;;;;;4.83;100.00;95893.63;10406263;28;2475;-66
2023/03/16 11:42:26;;;;;;;;;;;;;;;4.61;100.00;95895.28;10398634;28;2462;-69
2023/03/16 11:47:30;;;;;;;;;;;;;;;5.20;100.00;95879.16;10405845;28;2590;-68
2023/03/16 11:52:32;;;;;;;;;;;;;;;5.64;100.00;95861.59;10409118;28;2537;-75
2023/03/16 11:57:35;;;;;;;;;;;;;;;5.00;100.00;95864.41;10400076;28;2474;-67
2023/03/16 12:02:38;;;;;;;;;;;;;;;5.11;100.00;95852.09;10405100;28;2495;-67
2023/03/16 12:07:41;;;;;;;;;;;;;;;4.83;100.00;95845.66;10404582;28;2514;-66
2023/03/16 12:12:44;;;;;;;;;;;;;;;5.14;100.00;95840.94;10400561;28;1922;-68
2023/03/16 12:17:49;;;;;;;;;;;;;;;5.06;100.00;95838.66;10405382;28;2536;-69
2023/03/16 12:22:52;;;;;;;;;;;;;;;5.46;100.00;95816.47;10406228;28;2478;-65
2023/03/16 12:27:54;;;;;;;;;;;;;;;5.62;100.00;95816.50;10395407;28;2610;-66
2023/03/16 12:32:59;;;;;;;;;;;;;;;5.64;100.00;95814.41;10407589;28;2579;-66
2023/03/16 12:38:02;;;;;;;;;;;;;;;5.96;100.00;95811.22;10400896;28;2523;-66
2023/03/16 12:43:05;;;;;;;;;;;;;;;6.10;100.00;95806.34;10405694;28;2039;-67
2023/03/16 12:48:08;;;;;;;;;;;;;;;5.94;100.00;95807.97;10398140;28;2462;-66
2023/03/16 12:53:10;;;;;;;;;;;;;;;6.01;100.00;95787.28;10404826;28;2027;-66
2023/03/16 12:58:13;;;;;;;;;;;;;;;6.14;100.00;95786.94;10389488;28;2070;-65
2023/03/16 13:03:16;;;;;;;;;;;;;;;6.35;100.00;95788.03;10403498;28;1949;-64
2023/03/16 13:08:29;;;;;;;;;;;;;;;6.53;100.00;95783.44;10397512;28;2510;-66
2023/03/16 13:13:32;;;;;;;;;;;;;;;6.43;100.00;95774.25;10401226;28;2463;-67
2023/03/16 13:18:35;;;;;;;;;;;;;;;6.59;100.00;95769.91;10404566;28;2422;-67
2023/03/16 13:23:37;;;;;;;;;;;;;;;6.66;100.00;95762.50;10399864;28;2469;-66
2023/03/16 13:28:40;;;;;;;;;;;;;;;6.66;100.00;95761.72;10396962;28;2491;-65
2023/03/16 13:33:42;;;;;;;;;;;;;;;6.89;100.00;95766.00;10397054;28;2480;-75
2023/03/16 13:38:45;;;;;;;;;;;;;;;6.77;100.00;95764.25;10395305;28;1970;-65
2023/03/16 13:43:49;;;;;;;;;;;;;;;6.93;99.62;95764.41;10400211;28;2453;-68
2023/03/16 13:48:53;;;;;;;;;;;;;;;7.09;91.75;95750.19;10400134;28;2478;-65
2023/03/16 13:53:56;;;;;;;;;;;;;;;7.12;96.95;95743.50;10403402;28;2377;-66
2023/03/16 13:58:59;;;;;;;;;;;;;;;7.19;92.68;95741.44;10400786;28;2196;-67
2023/03/16 14:04:07;;;;;;;;;;;;;;;7.40;88.63;95735.22;10402835;28;2510;-66
2023/03/16 14:09:10;;;;;;;;;;;;;;;7.63;87.21;95735.94;10399607;28;2533;-67
2023/03/16 14:14:13;;;;;;;;;;;;;;;7.46;83.40;95734.22;10395824;28;1973;-73
2023/03/16 14:19:16;;;;;;;;;;;;;;;7.42;74.27;95727.75;10400608;28;2476;-67
2023/03/16 14:24:19;;;;;;;;;;;;;;;7.44;74.95;95736.31;10400657;28;2487;-67
2023/03/16 14:29:23;;;;;;;;;;;;;;;7.55;78.18;95731.88;10397526;28;2520;-67
2023/03/16 14:34:26;;;;;;;;;;;;;;;7.70;77.16;95739.19;10429369;28;2558;-66
2023/03/16 14:39:29;;;;;;;;;;;;;;;7.59;75.54;95736.47;10403682;28;2611;-66
2023/03/16 14:44:33;;;;;;;;;;;;;;;7.51;76.32;95717.41;10405641;28;2484;-65
2023/03/16 14:49:36;;;;;;;;;;;;;;;7.51;76.46;95720.09;10409273;28;2463;-66
2023/03/16 14:54:38;;;;;;;;;;;;;;;7.52;74.52;95722.50;10407032;28;2486;-66
2023/03/16 14:59:42;;;;;;;;;;;;;;;7.43;75.34;95718.66;10404514;28;2098;-67
2023/03/16 15:04:45;;;;;;;;;;;;;;;7.48;77.51;95718.72;10408764;28;2647;-67
2023/03/16 15:09:49;;;;;;;;;;;;;;;7.66;76.79;95716.72;10401811;28;2488;-67
2023/03/16 15:20:24;;;;;;;;;;;;;;;7.59;81.00;95696.34;10402511;28;2245;-67
2023/03/16 15:25:35;;;;;;;;;;;;;;;7.66;82.00;95706.81;10416795;28;2481;-72
2023/03/16 15:30:38;;;;;;;;;;;;;;;7.61;78.42;95700.63;10404240;28;2927;-68
2023/03/16 15:35:41;;;;;;;;;;;;;;;7.49;76.59;95701.59;10406251;28;2403;-75
2023/03/16 15:40:46;;;;;;;;;;;;;;;7.62;77.80;95691.53;10405882;28;2570;-66
2023/03/16 15:45:50;;;;;;;;;;;;;;;7.63;78.49;95685.91;10402813;28;2399;-68
2023/03/16 15:50:53;;;;;;;;;;;;;;;7.67;74.39;95675.53;10402536;28;2440;-67
2023/03/16 15:55:57;;;;;;;;;;;;;;;7.62;71.50;95667.44;10402955;28;2483;-67
2023/03/16 16:01:01;;;;;;;;;;;;;;;7.53;74.72;95669.81;10399960;28;2410;-67
2023/03/16 16:06:05;;;;;;;;;;;;;;;7.50;78.74;95655.06;10399491;28;2504;-67
2023/03/16 16:11:07;;;;;;;;;;;;;;;7.55;81.72;95654.31;10402808;28;2559;-67
2023/03/16 16:16:12;;;;;;;;;;;;;;;7.61;79.08;95655.16;10396308;28;2478;-68
2023/03/16 16:21:15;;;;;;;;;;;;;;;7.55;78.01;95652.44;10405093;28;2815;-68
2023/03/16 16:26:18;;;;;;;;;;;;;;;7.47;76.36;95658.25;10408490;28;2558;-67
2023/03/16 16:31:21;;;;;;;;;;;;;;;7.45;79.58;95659.59;10398117;28;2029;-67
2023/03/16 16:36:24;;;;;;;;;;;;;;;7.45;81.88;95663.06;10406635;28;2446;-72
2023/03/16 16:41:27;;;;;;;;;;;;;;;7.28;84.31;95681.13;10407260;28;2470;-67
2023/03/16 16:46:30;;;;;;;;;;;;;;;7.14;86.80;95683.41;10399888;28;1973;-67
2023/03/16 16:51:34;;;;;;;;;;;;;;;7.05;87.41;95684.91;10401032;28;2007;-66
2023/03/16 16:56:37;;;;;;;;;;;;;;;6.90;90.21;95688.25;10400816;28;2352;-66
2023/03/16 17:01:50;;;;;;;;;;;;;;;6.81;92.91;95686.25;10397031;28;2500;-66
2023/03/16 17:06:56;;;;;;;;;;;;;;;6.68;94.68;95690.13;10404966;28;2410;-65
2023/03/16 17:11:59;;;;;;;;;;;;;;;6.55;97.51;95690.53;10403066;28;2364;-66
2023/03/16 17:17:03;;;;;;;;;;;;;;;6.44;99.58;95690.44;10400233;28;1934;-66
2023/03/16 17:22:05;;;;;;;;;;;;;;;6.37;100.00;95689.81;10394146;28;1986;-69
2023/03/16 17:27:08;;;;;;;;;;;;;;;6.24;100.00;95698.19;10399298;28;2474;-67
2023/03/16 17:32:11;;;;;;;;;;;;;;;6.13;100.00;95697.25;10400678;28;2399;-67
2023/03/16 17:37:14;;;;;;;;;;;;;;;6.08;100.00;95707.03;10392899;28;2230;-67
2023/03/16 17:42:17;;;;;;;;;;;;;;;5.94;100.00;95699.41;10399953;28;2656;-67
2023/03/16 17:47:20;;;;;;;;;;;;;;;5.78;100.00;95686.84;10397575;28;2542;-69
2023/03/16 17:52:24;;;;;;;;;;;;;;;5.72;100.00;95692.38;10397706;28;2532;-68
2023/03/16 17:57:27;;;;;;;;;;;;;;;5.57;100.00;95692.94;10404386;28;2581;-65
2023/03/16 18:02:30;;;;;;;;;;;;;;;5.40;100.00;95684.94;10396861;28;2411;-67
2023/03/16 18:07:33;;;;;;;;;;;;;;;5.21;100.00;95694.25;10402142;28;2436;-67
2023/03/16 18:12:35;;;;;;;;;;;;;;;5.32;100.00;95688.84;10409589;28;2483;-67
2023/03/16 18:17:41;;;;;;;;;;;;;;;5.23;100.00;95694.81;10409294;28;2617;-70
2023/03/16 18:22:44;;;;;;;;;;;;;;;5.23;100.00;95686.84;10412269;28;2643;-68
2023/03/16 18:27:48;;;;;;;;;;;;;;;5.05;100.00;95698.50;10408136;28;1998;-66
2023/03/16 18:32:50;;;;;;;;;;;;;;;5.01;100.00;95697.38;10406175;28;1990;-66
2023/03/16 18:37:54;;;;;;;;;;;;;;;4.91;100.00;95694.56;10408703;28;2334;-66
2023/03/16 18:43:00;;;;;;;;;;;;;;;4.93;100.00;95693.25;10404600;28;2554;-67
2023/03/16 18:48:03;;;;;;;;;;;;;;;4.89;100.00;95684.91;10412196;28;2681;-66
2023/03/16 18:53:07;;;;;;;;;;;;;;;4.81;100.00;95682.66;10403427;28;2355;-68
2023/03/16 18:58:10;;;;;;;;;;;;;;;4.77;100.00;95678.88;10408708;28;2463;-66
2023/03/16 19:03:13;;;;;;;;;;;;;;;4.71;100.00;95677.16;10403358;28;2386;-72
2023/03/16 19:08:15;;;;;;;;;;;;;;;4.60;100.00;95680.69;10408491;28;2479;-66
2023/03/16 19:13:28;;;;;;;;;;;;;;;4.52;100.00;95683.72;10402405;28;2477;-73
2023/03/16 19:23:55;;;;;;;;;;;;;;;4.30;100.00;95676.38;10407698;28;1959;-70
2023/03/16 19:28:57;;;;;;;;;;;;;;;4.33;100.00;95681.25;10408506;28;2017;-67
2023/03/16 19:34:00;;;;;;;;;;;;;;;4.31;100.00;95677.97;10406657;28;2126;-66
2023/03/16 19:39:02;;;;;;;;;;;;;;;4.27;100.00;95682.19;10393941;28;2476;-67
2023/03/16 19:44:07;;;;;;;;;;;;;;;4.21;100.00;95677.81;10404510;28;2484;-66
2023/03/16 19:49:18;;;;;;;;;;;;;;;4.19;100.00;95673.75;10398880;28;2138;-65
2023/03/16 19:54:21;;;;;;;;;;;;;;;4.10;100.00;95681.28;10397182;28;2421;-67
2023/03/16 19:59:24;;;;;;;;;;;;;;;4.12;100.00;95684.50;10397849;28;2377;-66
2023/03/16 20:04:27;;;;;;;;;;;;;;;4.13;100.00;95672.03;10402820;28;1947;-66
2023/03/16 20:09:31;;;;;;;;;;;;;;;4.11;100.00;95677.59;10402244;28;2415;-67
2023/03/16 20:14:34;;;;;;;;;;;;;;;4.07;100.00;95674.59;10402972;28;2582;-66
2023/03/16 20:19:36;;;;;;;;;;;;;;;3.98;100.00;95664.53;10396642;28;2489;-69
2023/03/16 20:24:39;;;;;;;;;;;;;;;3.98;100.00;95661.88;10403204;28;2523;-68
2023/03/16 20:29:42;;;;;;;;;;;;;;;3.84;100.00;95663.19;10397993;28;2444;-70
2023/03/16 20:34:45;;;;;;;;;;;;;;;3.87;100.00;95657.41;10394494;28;2470;-68
2023/03/16 20:39:47;;;;;;;;;;;;;;;3.84;100.00;95656.03;10398416;28;2040;-68
2023/03/16 20:44:51;;;;;;;;;;;;;;;3.83;100.00;95653.59;10400944;28;2472;-67
2023/03/16 20:49:53;;;;;;;;;;;;;;;3.74;100.00;95651.28;10393053;28;2491;-69
2023/03/16 20:54:56;;;;;;;;;;;;;;;3.63;100.00;95654.78;10391649;28;2510;-69
2023/03/16 20:59:59;;;;;;;;;;;;;;;3.59;100.00;95648.31;10392019;28;2461;-68
2023/03/16 21:05:11;;;;;;;;;;;;;;;3.61;100.00;95640.91;10389397;28;2482;-68
2023/03/16 21:10:14;;;;;;;;;;;;;;;3.65;100.00;95638.59;10404302;28;2503;-68
2023/03/16 21:15:27;;;;;;;;;;;;;;;3.53;100.00;95649.22;10396538;28;2105;-71
2023/03/16 21:20:30;;;;;;;;;;;;;;;3.56;100.00;95647.94;10393494;28;2404;-69
2023/03/16 21:25:33;;;;;;;;;;;;;;;3.57;100.00;95636.31;10391941;28;2607;-68
2023/03/16 21:30:36;;;;;;;;;;;;;;;3.42;100.00;95639.41;10393807;28;2466;-69
2023/03/16 21:35:39;;;;;;;;;;;;;;;3.34;100.00;95643.22;10394385;28;2459;-67
2023/03/16 21:40:42;;;;;;;;;;;;;;;3.27;100.00;95641.72;10394583;28;2453;-68
2023/03/16 21:45:44;;;;;;;;;;;;;;;3.20;100.00;95634.69;10397422;28;2418;-67
2023/03/16 21:50:47;;;;;;;;;;;;;;;3.12;100.00;95621.75;10403363;28;2525;-69
2023/03/16 21:55:50;;;;;;;;;;;;;;;3.02;100.00;95621.50;10409415;28;2536;-67
2023/03/16 22:00:53;;;;;;;;;;;;;;;2.88;100.00;95612.94;10405140;28;2014;-67
2023/03/16 22:05:56;;;;;;;;;;;;;;;2.83;100.00;95617.31;10402001;28;2480;-67
2023/03/16 22:10:58;;;;;;;;;;;;;;;2.84;100.00;95619.75;10404165;28;2448;-67
2023/03/16 22:16:08;;;;;;;;;;;;;;;2.82;100.00;95615.72;10397782;28;2565;-67
2023/03/16 22:21:16;;;;;;;;;;;;;;;2.78;100.00;95618.00;10400383;28;1998;-67
2023/03/16 22:26:19;;;;;;;;;;;;;;;2.69;100.00;95611.41;10400835;28;2017;-67
2023/03/16 22:31:22;;;;;;;;;;;;;;;2.61;100.00;95625.84;10404642;28;1922;-66
2023/03/16 22:36:25;;;;;;;;;;;;;;;2.49;100.00;95622.34;10399882;28;2569;-67
2023/03/16 22:41:27;;;;;;;;;;;;;;;2.49;100.00;95627.66;10402593;28;2454;-67
2023/03/16 22:46:29;;;;;;;;;;;;;;;2.57;100.00;95624.66;10402609;28;2545;-67
2023/03/16 22:51:32;;;;;;;;;;;;;;;2.47;100.00;95616.44;10404101;28;2420;-69
2023/03/16 22:56:34;;;;;;;;;;;;;;;2.34;100.00;95613.97;10395750;28;2560;-66
2023/03/16 23:01:38;;;;;;;;;;;;;;;2.22;100.00;95615.75;10402214;28;2391;-69
2023/03/16 23:06:40;;;;;;;;;;;;;;;2.26;100.00;95606.34;10405451;28;2468;-72
2023/03/16 23:11:43;;;;;;;;;;;;;;;2.21;100.00;95603.53;10395314;28;2537;-68
2023/03/16 23:16:46;;;;;;;;;;;;;;;2.06;100.00;95602.09;10400187;28;2419;-67
2023/03/16 23:21:49;;;;;;;;;;;;;;;1.99;100.00;95605.88;10405690;28;2442;-68
2023/03/16 23:26:52;;;;;;;;;;;;;;;2.00;100.00;95594.25;10403203;28;2053;-69
2023/03/16 23:31:54;;;;;;;;;;;;;;;1.89;100.00;95596.59;10407796;28;2439;-66
2023/03/16 23:36:56;;;;;;;;;;;;;;;1.83;100.00;95596.69;10401646;28;2523;-66
2023/03/16 23:41:59;;;;;;;;;;;;;;;1.79;100.00;95599.00;10408008;28;2475;-67
2023/03/16 23:47:01;;;;;;;;;;;;;;;1.77;100.00;95586.97;10400045;28;2485;-70
2023/03/16 23:52:04;;;;;;;;;;;;;;;1.68;100.00;95585.69;10400482;28;2455;-69
2023/03/16 23:57:06;;;;;;;;;;;;;;;1.70;100.00;95586.25;10400697;28;1980;-66
